createdAt,value
2019-02-04T00:00:08.889Z,7.23
2019-02-04T00:05:12.913Z,7.23
2019-02-04T00:10:16.932Z,6.07
2019-02-04T00:15:20.947Z,7.00
2019-02-04T00:20:24.887Z,7.40
2019-02-04T00:25:28.838Z,8.10
2019-02-04T00:30:33.156Z,7.27
2019-02-04T00:35:37.124Z,8.30
2019-02-04T00:40:41.085Z,8.27
2019-02-04T00:45:45.059Z,8.10
2019-02-04T00:50:48.961Z,8.20
2019-02-04T00:55:52.983Z,8.50
2019-02-04T01:00:57.023Z,9.17
2019-02-04T01:06:01.415Z,7.40
2019-02-04T01:11:06.455Z,8.50
2019-02-04T01:16:10.503Z,8.33
2019-02-04T01:21:14.596Z,8.50
2019-02-04T01:26:18.634Z,9.20
2019-02-04T01:31:22.507Z,8.27
2019-02-04T01:36:26.451Z,9.40
2019-02-04T01:41:33.159Z,9.40
2019-02-04T01:46:36.439Z,9.77
2019-02-04T01:51:40.367Z,9.00
2019-02-04T01:56:45.052Z,10.47
2019-02-04T02:01:49.156Z,10.60
2019-02-04T02:06:53.183Z,11.33
2019-02-04T02:11:57.320Z,11.93
2019-02-04T02:17:01.631Z,11.17
2019-02-04T02:22:05.624Z,13.53
2019-02-04T02:27:09.727Z,13.40
2019-02-04T02:32:13.757Z,13.10
2019-02-04T02:37:17.672Z,14.83
2019-02-04T02:42:21.711Z,13.40
2019-02-04T02:47:25.554Z,13.90
2019-02-04T02:52:31.110Z,16.47
2019-02-04T02:57:35.031Z,16.00
2019-02-04T03:02:38.895Z,15.33
2019-02-04T03:07:42.920Z,16.67
2019-02-04T03:12:47.147Z,14.93
2019-02-04T03:17:52.610Z,15.90
2019-02-04T03:22:56.872Z,16.73
2019-02-04T03:28:01.135Z,16.23
2019-02-04T03:33:05.757Z,15.87
2019-02-04T03:38:09.679Z,15.57
2019-02-04T03:43:13.619Z,16.00
2019-02-04T03:48:17.551Z,16.67
2019-02-04T03:53:21.400Z,14.50
2019-02-04T03:58:25.323Z,15.03
2019-02-04T04:03:29.335Z,13.97
2019-02-04T04:08:33.271Z,15.33
2019-02-04T04:13:37.148Z,14.50
2019-02-04T04:18:41.076Z,13.50
2019-02-04T04:23:45.000Z,14.40
2019-02-04T04:28:48.924Z,14.67
2019-02-04T04:33:52.868Z,17.07
2019-02-04T04:38:57.075Z,16.80
2019-02-04T04:44:00.932Z,15.30
2019-02-04T04:49:05.287Z,15.17
2019-02-04T04:54:09.156Z,14.90
2019-02-04T04:59:13.088Z,16.33
2019-02-04T05:04:16.927Z,17.37
2019-02-04T05:09:20.775Z,15.40
2019-02-04T05:14:24.659Z,16.83
2019-02-04T05:19:28.501Z,16.40
2019-02-04T05:24:32.335Z,16.93
2019-02-04T05:29:36.172Z,15.60
2019-02-04T05:34:40.154Z,15.90
2019-02-04T05:39:44.431Z,16.67
2019-02-04T05:44:48.388Z,15.40
2019-02-04T05:49:52.304Z,15.27
2019-02-04T05:54:56.211Z,18.03
2019-02-04T06:00:00.056Z,15.50
2019-02-04T06:05:04.927Z,14.93
2019-02-04T06:10:09.131Z,14.77
2019-02-04T06:15:13.354Z,14.80
2019-02-04T06:20:20.236Z,16.20
2019-02-04T06:25:24.070Z,16.30
2019-02-04T06:30:28.041Z,13.83
2019-02-04T06:35:31.991Z,14.60
2019-02-04T06:40:35.904Z,13.87
2019-02-04T06:45:39.739Z,13.93
2019-02-04T06:50:43.759Z,14.00
2019-02-04T06:55:47.708Z,13.10
2019-02-04T07:00:51.544Z,12.33
2019-02-04T07:05:55.528Z,11.57
2019-02-04T07:10:59.507Z,12.60
2019-02-04T07:16:03.351Z,11.67
2019-02-04T07:21:07.355Z,12.27
2019-02-04T07:26:11.339Z,11.87
2019-02-04T07:31:15.252Z,12.33
2019-02-04T07:36:19.187Z,10.57
2019-02-04T07:41:23.034Z,11.07
2019-02-04T07:46:26.973Z,11.03
2019-02-04T07:51:31.356Z,10.83
2019-02-04T07:56:35.227Z,11.90
2019-02-04T08:01:39.143Z,11.10
2019-02-04T08:06:43.007Z,10.50
2019-02-04T08:11:46.840Z,11.27
2019-02-04T08:16:50.739Z,10.50
2019-02-04T08:21:54.716Z,10.83
2019-02-04T08:26:58.556Z,11.70
2019-02-04T08:32:02.548Z,8.70
2019-02-04T08:37:06.446Z,9.50
2019-02-04T08:42:10.507Z,9.80
2019-02-04T08:47:22.535Z,9.27
2019-02-04T08:52:20.063Z,10.03
2019-02-04T08:57:24.148Z,9.50
2019-02-04T09:02:27.986Z,8.37
2019-02-04T09:07:31.812Z,8.50
2019-02-04T09:12:35.648Z,8.50
2019-02-04T09:17:39.659Z,8.80
2019-02-04T09:22:43.672Z,7.80
2019-02-04T09:27:47.495Z,7.87
2019-02-04T09:32:52.046Z,7.13
2019-02-04T09:37:56.175Z,7.43
2019-02-04T09:43:00.153Z,8.47
2019-02-04T09:48:05.172Z,8.47
2019-02-04T09:53:09.211Z,7.73
2019-02-04T09:58:13.112Z,7.10
2019-02-04T10:03:17.041Z,6.30
2019-02-04T10:08:21.386Z,8.20
2019-02-04T10:13:25.287Z,6.70
2019-02-04T10:18:29.137Z,8.93
2019-02-04T10:23:33.136Z,7.43
2019-02-04T10:28:37.225Z,8.00
2019-02-04T10:33:41.116Z,7.90
2019-02-04T10:38:49.607Z,5.97
2019-02-04T10:43:57.019Z,7.00
2019-02-04T10:49:00.949Z,6.33
2019-02-04T10:54:06.494Z,6.33
2019-02-04T10:59:10.472Z,6.93
2019-02-04T11:04:14.435Z,6.57
2019-02-04T11:09:18.338Z,6.20
2019-02-04T11:14:22.411Z,5.57
2019-02-04T11:19:26.870Z,6.70
2019-02-04T11:24:30.740Z,5.63
2019-02-04T11:29:34.645Z,6.10
2019-02-04T11:34:38.530Z,5.93
2019-02-04T11:39:42.454Z,6.90
2019-02-04T11:44:46.451Z,6.47
2019-02-04T11:49:50.527Z,5.37
2019-02-04T11:54:54.827Z,6.60
2019-02-04T11:59:58.687Z,6.17
2019-02-04T12:05:02.661Z,6.60
2019-02-04T12:10:08.549Z,6.30
2019-02-04T12:15:14.407Z,6.07
2019-02-04T12:20:18.457Z,6.40
2019-02-04T12:25:23.920Z,6.23
2019-02-04T12:30:33.794Z,6.67
2019-02-04T12:35:37.848Z,7.10
2019-02-04T12:40:41.823Z,6.70
2019-02-04T12:45:46.232Z,6.13
2019-02-04T12:50:50.215Z,5.97
2019-02-04T12:55:54.115Z,6.10
2019-02-04T13:00:57.944Z,5.53
2019-02-04T13:06:03.084Z,6.40
2019-02-04T13:11:07.078Z,6.87
2019-02-04T13:16:11.070Z,5.73
2019-02-04T13:21:14.903Z,5.60
2019-02-04T13:26:18.809Z,5.17
2019-02-04T13:31:22.712Z,5.83
2019-02-04T13:36:26.613Z,5.60
2019-02-04T13:41:30.538Z,6.23
2019-02-04T13:46:34.456Z,5.63
2019-02-04T13:51:38.427Z,5.43
2019-02-04T13:56:42.315Z,4.90
2019-02-04T14:01:46.319Z,4.80
2019-02-04T14:06:50.491Z,4.77
2019-02-04T14:11:54.421Z,5.27
2019-02-04T14:16:58.388Z,4.90
2019-02-04T14:22:09.482Z,4.90
2019-02-04T14:27:07.997Z,6.03
2019-02-04T14:32:11.975Z,7.30
2019-02-04T14:37:15.987Z,5.73
2019-02-04T14:42:20.287Z,6.40
2019-02-04T14:47:46.626Z,4.67
2019-02-04T14:53:34.995Z,4.30
2019-02-04T14:59:13.004Z,5.07
2019-02-04T15:04:26.662Z,5.73
2019-02-04T15:09:56.404Z,4.63
2019-02-04T15:15:27.488Z,5.20
2019-02-04T15:21:11.189Z,4.40
2019-02-04T15:26:28.912Z,4.87
2019-02-04T15:32:15.026Z,4.10
2019-02-04T15:37:32.938Z,4.30
2019-02-04T15:43:16.665Z,4.23
2019-02-04T15:48:34.903Z,3.93
2019-02-04T15:53:38.843Z,4.87
2019-02-04T15:58:42.691Z,4.17
2019-02-04T16:03:46.613Z,3.70
2019-02-04T16:08:50.452Z,3.80
2019-02-04T16:13:54.374Z,3.90
2019-02-04T16:18:58.225Z,3.77
2019-02-04T16:24:02.436Z,3.80
2019-02-04T16:29:06.423Z,3.83
2019-02-04T16:34:10.564Z,3.47
2019-02-04T16:39:14.785Z,3.43
2019-02-04T16:44:18.856Z,3.40
2019-02-04T16:49:23.081Z,3.83
2019-02-04T16:54:27.252Z,3.53
2019-02-04T16:59:31.378Z,3.67
2019-02-04T17:04:35.503Z,3.60
2019-02-04T17:09:39.561Z,3.27
2019-02-04T17:14:43.555Z,3.33
2019-02-04T17:19:47.404Z,3.17
2019-02-04T17:24:51.735Z,3.67
2019-02-04T17:29:55.732Z,4.00
2019-02-04T17:34:59.585Z,4.07
2019-02-04T17:40:04.381Z,3.40
2019-02-04T17:45:11.623Z,4.30
2019-02-04T17:50:17.448Z,4.00
2019-02-04T17:55:22.996Z,4.20
2019-02-04T18:00:39.663Z,4.40
2019-02-04T18:05:43.555Z,3.63
2019-02-04T18:10:48.113Z,3.87
2019-02-04T18:15:52.072Z,3.77
2019-02-04T18:20:55.905Z,3.70
2019-02-04T18:25:59.824Z,4.00
2019-02-04T18:31:04.061Z,3.00
2019-02-04T18:36:08.042Z,3.97
2019-02-04T18:41:11.947Z,3.53
2019-02-04T18:46:15.929Z,3.60
2019-02-04T18:51:20.261Z,3.77
2019-02-04T18:56:24.163Z,4.07
2019-02-04T19:01:28.067Z,3.40
2019-02-04T19:06:32.022Z,3.80
2019-02-04T19:11:35.992Z,4.30
2019-02-04T19:16:39.923Z,3.67
2019-02-04T19:21:44.216Z,3.97
2019-02-04T19:26:48.256Z,3.90
2019-02-04T19:31:52.155Z,4.10
2019-02-04T19:36:56.088Z,4.63
2019-02-04T19:42:00.010Z,3.73
2019-02-04T19:47:04.266Z,4.50
2019-02-04T19:52:08.253Z,4.90
2019-02-04T19:57:12.100Z,5.00
2019-02-04T20:02:16.083Z,4.30
2019-02-04T20:07:19.928Z,4.20
2019-02-04T20:12:23.923Z,4.37
2019-02-04T20:17:27.785Z,4.30
2019-02-04T20:22:31.707Z,4.70
2019-02-04T20:27:35.608Z,3.97
2019-02-04T20:32:39.608Z,4.17
2019-02-04T20:37:43.588Z,4.60
2019-02-04T20:42:47.527Z,4.33
2019-02-04T20:47:51.481Z,3.90
2019-02-04T20:52:55.507Z,4.17
2019-02-04T20:57:59.550Z,4.23
2019-02-04T21:03:03.464Z,4.27
2019-02-04T21:08:08.051Z,3.70
2019-02-04T21:13:12.464Z,4.00
2019-02-04T21:18:16.387Z,3.10
2019-02-04T21:23:20.368Z,3.60
2019-02-04T21:28:24.275Z,3.23
2019-02-04T21:33:28.263Z,3.40
2019-02-04T21:38:32.112Z,3.93
2019-02-04T21:43:35.947Z,2.90
2019-02-04T21:48:40.080Z,3.50
2019-02-04T21:53:44.064Z,2.77
2019-02-04T21:58:47.915Z,2.53
2019-02-04T22:03:51.852Z,3.50
2019-02-04T22:08:55.772Z,3.10
2019-02-04T22:13:59.716Z,3.07
2019-02-04T22:19:03.629Z,2.80
2019-02-04T22:24:07.551Z,3.70
2019-02-04T22:29:11.386Z,3.97
2019-02-04T22:34:15.225Z,4.00
2019-02-04T22:39:19.140Z,3.33
2019-02-04T22:44:23.628Z,4.10
2019-02-04T22:49:27.556Z,3.80
2019-02-04T22:54:31.403Z,4.30
2019-02-04T22:59:35.256Z,4.10
2019-02-04T23:04:39.215Z,4.10
2019-02-04T23:09:43.195Z,4.03
2019-02-04T23:14:47.143Z,4.47
2019-02-04T23:19:50.996Z,4.77
2019-02-04T23:24:54.831Z,4.33
2019-02-04T23:29:58.754Z,5.70
2019-02-04T23:35:02.680Z,5.57
2019-02-04T23:40:07.095Z,4.40
2019-02-04T23:45:11.527Z,5.07
2019-02-04T23:50:15.755Z,5.33
2019-02-04T23:55:19.695Z,5.10
